Tiempo atmosférico en la estación meteorológica de Calanda, Teruel (459 m.)



Fecha
DESCASC
Temp. máxima en grados centígrados (hora)
DESCASC
Temp. mínima en grados centígrados (hora)
DESCASC
Temp. media en grados centígrados
DESCASC
Racha de viento máxima en m/sg (hora)
DESCASC
Velocidad máxima media en intervalos de 10 minutos(hora)
DESCASC
Precipitaciones diarias en mm
DESCASC
Precipitaciones de 00:00 a 06:00 en mm
DESCASC
Precipitaciones de 06:00 a 12:00 en mm
DESCASC
Precipitaciones de 12:00 a 18:00 en mm
DESCASC
Precipitaciones de 18:00 a 24:00 en mm
DESCASC
20-01-2019 8.6 (14:40) 3 (05:50) 5.8 12.78 (22:00) 8.33 (22:00) 4.2 2.2 2 0 0
19-01-2019 9.6 (12:20) 0 (06:20) 4.8 6.67 (12:20) 3.61 (04:40) 1.2 0 0 0 1.2
18-01-2019 9.5 (15:00) 1.1 (00:00) 5.3 7.22 (15:00) 4.44 (14:50) 0 0 0 0 0
17-01-2019 8.7 (16:30) -0.1 (00:00) 4.3 10 (13:20) 6.67 (14:20) 0 0 0 0 0
16-01-2019 11 (12:50) 1.1 (08:40) 6.1 4.44 (00:40) 3.33 (01:30) 0 0 0 0 0
15-01-2019 12.8 (14:00) 2.8 (00:00) 7.8 6.94 (02:00) 4.44 (01:50) 0 0 0 0 0
14-01-2019 13.6 (15:40) 4.4 (00:00) 9 11.67 (13:00) 8.06 (13:00) 0 0 0 0 0
13-01-2019 12 (16:00) 3.9 (02:30) 8 11.11 (14:40) 6.94 (13:20) 0 0 0 0 0
12-01-2019 10.6 (14:30) 1 (00:00) 5.8 10.28 (15:30) 6.94 (15:30) 0 0 0 0 0
11-01-2019 6.9 (15:40) -2 (-00:0) 2.5 11.11 (12:20) 7.22 (12:50) 0 0 0 0 0
10-01-2019 6.4 (14:40) 0 (00:00) 3.2 13.61 (02:20) 8.89 (05:10) 0 0 0 0 0
09-01-2019 11.8 (14:30) 4.8 (00:00) 8.3 16.39 (16:40) 10.56 (15:30) 0 0 0 0 0
08-01-2019 11.6 (16:40) -1.6 (-00:0) 5 10 (19:40) 6.11 (23:40) 0 0 0 0 0
07-01-2019 10.4 (15:30) -1.4 (-00:0) 4.5 7.22 (16:50) 4.17 (03:40) 0 0 0 0 0
06-01-2019 14.2 (15:00) 1.3 (00:00) 7.7 7.5 (15:20) 4.44 (11:40) 0 0 0 0 0
05-01-2019 14 (14:00) -5.1 (-00:0) 4.5 9.17 (12:20) 5.56 (12:20) 0 0 0 0 0
04-01-2019 10.4 (12:20) -2.6 (-00:0) 3.9 7.5 (01:10) 5.83 (00:20) 0 0 0 0 0
03-01-2019 10.4 (13:20) -0.4 (00:00) 5 7.78 (23:59) 5.83 (23:59) 0 0 0 0 0
02-01-2019 11.6 (16:10) -0.3 (00:00) 5.7 6.94 (14:50) 4.72 (15:30) 0 0 0 0 0
01-01-2019 13.7 (12:00) 4.8 (06:20) 9.3 8.06 (00:10) 6.39 (00:10) 0 0 0 0 0
31-12-2018 14.7 (13:10) 3.2 (00:00) 8.9 8.61 (23:50) 6.39 (23:50) 0 0 0 0 0
30-12-2018 13.1 (15:50) 2.2 (00:00) 7.7 8.06 (23:20) 6.11 (23:20) 0 0 0 0 0
29-12-2018 12 (13:50) 4.6 (00:00) 8.3 6.94 (04:40) 3.89 (11:30) 0 0 0 0 0
28-12-2018 9.3 (22:30) 1.5 (07:30) 5.4 6.11 (22:30) 3.33 (22:30) 0 0 0 0 0
27-12-2018 3.5 (17:10) -0.3 (00:00) 1.6 4.17 (03:50) 3.06 (03:50) 0 0 0 0 0
26-12-2018 3.8 (14:10) 1.3 (00:00) 2.5 2.5 (20:50) 1.67 (20:50) 0 0 0 0 0
25-12-2018 12.9 (12:20) 1.9 (00:00) 7.4 7.22 (01:30) 5.56 (01:40) 0 0 0 0 0
23-12-2018 13.9 (15:20) 5.7 (00:00) 9.8 5.83 (08:20) 4.72 (08:20) 0 0 0 0 0

Gráficas

Temp. máximas Temp. mínimas Temp. medias Precipitaciones Rachas de viento máximas Velocidades máximas media en intervalos de 10 minutos

Datos horarios

Fecha y hora oficial Temperatura (ºC) Velocidad del viento (km/h) Dirección del viento Racha (km/h) Dirección de racha Precipitación (mm) Presión (hPa) Tendencia (hPa) Humedad (%)
2019-01-21 23:00:00 3.6 9 Oeste 23 Oeste 0 965.1 0.9 70
2019-01-21 22:00:00 3.9 10 Oeste 27 Oeste 0 965 1.2 70
2019-01-21 21:00:00 4 13 Oeste 38 Oeste 0 964.9 1.3 70
2019-01-21 20:00:00 4.7 27 Oeste 41 Noroeste 0 964.2 0.9 71
2019-01-21 19:00:00 5 24 Oeste 40 Noroeste 0 963.8 0.3 70
2019-01-21 18:00:00 6 25 Noroeste 38 Oeste 0 963.6 0.2 67
2019-01-21 17:00:00 6.7 18 Oeste 39 Noroeste 0 963.3 -0.5 67
2019-01-21 16:00:00 7.2 24 Noroeste 39 Noroeste 0 963.5 -0.5 64
2019-01-21 15:00:00 7.8 27 Noroeste 45 Noroeste 0 963.4 -0.9 62
2019-01-21 14:00:00 7.7 23 Noroeste 42 Oeste 0 963.8 -0.1 61
2019-01-21 13:00:00 7.8 26 Noroeste 44 Noroeste 0 964 0.4 60
2019-01-21 12:00:00 7.2 26 Noroeste 41 Noroeste 0 964.3 1 63
2019-01-21 11:00:00 6.5 26 Noroeste 45 Oeste 0 963.9 1.4 66
2019-01-21 10:00:00 5 21 Oeste 35 Oeste 0 963.6 1.4 73
2019-01-21 09:00:00 4.5 13 Oeste 30 Oeste 0 963.3 1.9 74
2019-01-21 08:00:00 4.4 13 Oeste 33 Oeste 0 962.5 1.2 74
2019-01-21 07:00:00 3.9 9 Oeste 26 Oeste 0 962.2 0.7 77
2019-01-21 06:00:00 4.7 19 Oeste 43 Oeste 0 961.4 -0.1 75
2019-01-21 05:00:00 4.8 18 Oeste 37 Oeste 0 961.3 -0.2 75
2019-01-21 04:00:00 5.1 28 Oeste 39 Noroeste 0 961.5 0.1 75
2019-01-21 03:00:00 4.9 18 Oeste 32 Oeste 0 961.5 0.7 76
2019-01-21 02:00:00 4.8 10 Oeste 29 Noroeste 0 961.5 1.1 77
2019-01-21 01:00:00 5.2 19 Oeste 42 Oeste 0 961.4 1.6 76
2019-01-21 00:00:00 5.4 23 Oeste 40 Noroeste 0 960.8 1.3 76
2019-01-20 23:00:00 5.8 28 Oeste 43 Oeste 0 960.4 1.5 75
2019-01-20 22:00:00 5.8 30 Oeste 46 Oeste 0 959.8 1.4 76
2019-01-20 21:00:00 6 23 Oeste 37 Oeste 0 959.5 1.6 76
2019-01-20 20:00:00 6.1 23 Oeste 36 Oeste 0 958.9 1.5 77
2019-01-20 19:00:00 7.2 18 Noroeste 32 Oeste 0 958.4 1.5 74
2019-01-20 18:00:00 7.9 14 Noroeste 32 Noroeste 0 957.9 1.3 73
2019-01-20 17:00:00 8.3 19 Noroeste 35 Noroeste 0 957.4 0.8 70
2019-01-20 16:00:00 8.5 23 Noroeste 37 Noroeste 0 956.9 0 72
2019-01-20 15:00:00 8.4 22 Noroeste 39 Noroeste 0 956.6 -0.8 75
2019-01-20 14:00:00 8.2 22 Noroeste 39 Noroeste 0 956.6 -0.4 79
2019-01-20 13:00:00 7 18 Noroeste 29 Noroeste 0 956.9 0.7 84
2019-01-20 12:00:00 5.6 15 Oeste 27 Noroeste 0 957.4 1.9 87
2019-01-20 11:00:00 4.3 21 Noroeste 30 Noroeste 0 957 2.1 92
2019-01-20 10:00:00 3.9 15 Noroeste 24 Noroeste 0.2 956.2 2 96
2019-01-20 09:00:00 3.6 5 Norte 9 Norte 0.8 955.5 1.7 97
2019-01-20 08:00:00 3.4 4 Noroeste 10 Oeste 0.8 954.9 1.2 98
2019-01-20 07:00:00 3 3 Nordeste 6 Nordeste 0.2 954.2 0.2 98
2019-01-20 06:00:00 3.1 3 Nordeste 6 Nordeste 0 953.8 -0.2 97
2019-01-20 05:00:00 3.2 3 Norte 5 Norte 0 953.7 -0.6 97
2019-01-20 04:00:00 3.5 0 Calma 5 Norte 0.2 954 -1 96
2019-01-20 03:00:00 3.7 3 Norte 6 Oeste 0.8 954 -1.2 95
2019-01-20 02:00:00 3.6 4 Noroeste 5 Noroeste 0.8 954.3 -1.4 95
2019-01-20 01:00:00 3.5 3 Noroeste 5 Este 0.4 955 -0.9 94
2019-01-20 00:00:00 3.6 2 Nordeste 4 Este 0.8 955.2 -1.1 92
2019-01-19 23:00:00 4 3 Nordeste 8 Nordeste 0.4 955.7 -0.5 89
2019-01-19 22:00:00 4.6 3 Este 8 Noroeste 0 955.9 -0.4 82
2019-01-19 21:00:00 5.1 4 Noroeste 10 Oeste 0 956.3 -0.3 78
2019-01-19 20:00:00 5.9 0 Calma 12 Oeste 0 956.2 -1.1 74
2019-01-19 19:00:00 6.2 6 Oeste 9 Oeste 0 956.3 -1.6 68
2019-01-19 18:00:00 7.8 2 Noroeste 13 Nordeste 0 956.6 -2.1 60
2019-01-19 17:00:00 8.7 5 Nordeste 15 Nordeste 0 957.3 -2.2 56
2019-01-19 16:00:00 9.2 6 Norte 18 Norte 0 957.9 -2.5 53
2019-01-19 15:00:00 9.6 8 Norte 17 Norte 0 958.7 -2.4 53
2019-01-19 14:00:00 8.8 7 Norte 15 Norte 0 959.5 -1.8 55
2019-01-19 13:00:00 8.5 9 Norte 24 Noroeste 0 960.4 -1 55
2019-01-19 12:00:00 9.4 8 Noroeste 19 Sudoeste 0 961.1 0 52
2019-01-19 11:00:00 7.9 8 Sudoeste 14 Sudoeste 0 961.3 0.3 62
2019-01-19 10:00:00 4.1 0 Calma 10 Sudoeste 0 961.4 0.4 74
2019-01-19 09:00:00 2.7 5 Oeste 10 Oeste 0 961.1 0.4 80
2019-01-19 08:00:00 1.5 5 Sudoeste 10 Sudoeste 0 961 0.4 84
2019-01-19 07:00:00 0.2 4 Oeste 14 Norte 0 961 0 82
2019-01-19 06:00:00 0.3 2 Este 16 Sudoeste 0 960.7 -0.4 83
2019-01-19 05:00:00 2.2 13 Sudoeste 18 Sudoeste 0 960.6 -0.8 78
2019-01-19 04:00:00 2 11 Sudoeste 15 Sudoeste 0 961 -0.9 79
2019-01-19 03:00:00 0.8 8 Sudoeste 14 Sudoeste 0 961.1 -1.2 84
2019-01-19 02:00:00 1.5 12 Sudoeste 14 Sudoeste 0 961.4 -0.7 82
2019-01-19 01:00:00 2.2 6 Oeste 14 Sudoeste 0 961.9 0.3 71
2019-01-19 00:00:00 3.1 11 Sudoeste 15 Sudoeste 0 962.3 0.8 69
2019-01-18 23:00:00 2.4 7 Sudoeste 15 Oeste 0 962.1 0.4 69
2019-01-18 22:00:00 2.3 9 Oeste 15 Sudoeste 0 961.6 0 68
2019-01-18 21:00:00 4.3 14 Sudoeste 17 Sudoeste 0 961.5 0 60
2019-01-18 20:00:00 3.5 4 Oeste 8 Sudoeste 0 961.7 0.2 70
2019-01-18 19:00:00 4.2 5 Oeste 9 Oeste 0 961.6 -0.3 68
2019-01-18 18:00:00 6.9 0 Calma 12 Norte 0 961.5 -0.7 57
2019-01-18 17:00:00 8.1 4 Norte 18 Norte 0 961.5 -1.4 51
2019-01-18 16:00:00 8.8 9 Norte 22 Noroeste 0 961.9 -2 48
2019-01-18 15:00:00 9.5 15 Noroeste 26 Noroeste 0 962.2 -2.4 44
2019-01-18 14:00:00 8.9 9 Noroeste 24 Oeste 0 962.9 -1.7 45
2019-01-18 13:00:00 8.2 5 Oeste 17 Noroeste 0 963.9 -0.7 49
2019-01-18 12:00:00 7.3 10 Oeste 16 Oeste 0 964.6 0.4 57
2019-01-18 11:00:00 6.6 6 Sur 20 Sudoeste 0 964.6 0.3 62
2019-01-18 10:00:00 3.8 12 Sudoeste 17 Sudoeste 0 964.6 0.6 72
2019-01-18 09:00:00 1.4 13 Sudoeste 17 Sudoeste 0 964.2 0.1 81
2019-01-18 08:00:00 1.4 10 Sudoeste 17 Oeste 0 964.3 -0.1 80
2019-01-18 07:00:00 2.1 12 Sudoeste 17 Sudoeste 0 964 -0.6 79
2019-01-18 06:00:00 2.1 13 Sudoeste 18 Sudoeste 0 964.1 -0.6 80
2019-01-18 05:00:00 2.3 14 Sudoeste 18 Sudoeste 0 964.4 -0.2 80
2019-01-18 04:00:00 2.6 13 Sudoeste 17 Sudoeste 0 964.6 -0.3 80
2019-01-18 03:00:00 3.2 12 Sudoeste 18 Sudoeste 0 964.7 -0.4 79
2019-01-18 02:00:00 2.8 10 Sudoeste 17 Oeste 0 964.6 -0.3 81
2019-01-18 01:00:00 3.5 12 Oeste 20 Oeste 0 964.9 0.5 79
2019-01-18 00:00:00 4.2 11 Oeste 20 Oeste 0 965.1 1.5 76
2019-01-17 23:00:00 5.2 14 Oeste 27 Oeste 0 964.9 1.5 71
2019-01-17 22:00:00 6 14 Oeste 28 Oeste 0 964.4 1.2 66
2019-01-17 21:00:00 6.7 15 Oeste 29 Oeste 0 963.6 0.6 62
2019-01-17 20:00:00 6.5 12 Oeste 23 Oeste 0 963.4 0.6 65
2019-01-17 19:00:00 6.8 8 Oeste 18 Noroeste 0 963.2 0.6 64
2019-01-17 18:00:00 7.5 10 Oeste 30 Noroeste 0 963 0.5 62
2019-01-17 17:00:00 8.2 21 Noroeste 32 Noroeste 0 962.8 -0.1 58
2019-01-17 16:00:00 8.5 19 Noroeste 30 Oeste 0 962.6 -0.6 62
2019-01-17 15:00:00 8.4 19 Noroeste 35 Noroeste 0 962.5 -1.2 63
2019-01-17 14:00:00 8.5 18 Noroeste 36 Noroeste 0 962.9 -0.7 66
2019-01-17 13:00:00 8.5 17 Noroeste 28 Oeste 0 963.2 0 70
2019-01-17 12:00:00 7.9 12 Oeste 18 Oeste 0 963.7 1.3 69
2019-01-17 11:00:00 5.3 8 Sudoeste 13 Sudoeste 0 963.6 1.6 77
2019-01-17 10:00:00 2.5 5 Sur 25 Norte 0 963.2 1.4 88
2019-01-17 09:00:00 2.1 8 Sudoeste 19 Sudoeste 0 962.4 0.5 87
2019-01-17 08:00:00 2.7 12 Sudoeste 20 Sudoeste 0 962 -0.1 85
2019-01-17 07:00:00 1.7 13 Sudoeste 19 Sudoeste 0 961.8 -0.6 94
2019-01-17 06:00:00 1.2 2 Este 11 Sur 0 961.9 -0.8 91
2019-01-17 05:00:00 1.9 6 Sur 14 Sudoeste 0 962.1 -0.8 90
2019-01-17 04:00:00 1.4 3 Este 16 Sudoeste 0 962.4 -1.1 92
2019-01-17 03:00:00 1.7 14 Sudoeste 20 Sudoeste 0 962.7 -1 93
2019-01-17 02:00:00 1.2 10 Sur 19 Sudoeste 0 962.9 -0.4 98
2019-01-17 01:00:00 2.3 6 Sudoeste 13 Sudoeste 0 963.5 0.9 98
2019-01-17 00:00:00 2.3 7 Oeste 10 Oeste 0 963.7 1.7 98
2019-01-16 23:00:00 2.3 7 Oeste 11 Noroeste 0 963.3 1.6 98
2019-01-16 22:00:00 2.1 3 Sudoeste 12 Oeste 0 962.6 1.2 97
2019-01-16 21:00:00 2.4 6 Norte 8 Norte 0 962 0.9 96
2019-01-16 20:00:00 2.8 5 Nordeste 8 Nordeste 0 961.7 0.5 91
2019-01-16 19:00:00 5.8 5 Norte 9 Norte 0 961.4 0.1 85
2019-01-16 18:00:00 8.7 3 Norte 5 Nordeste 0 961.1 -0.3 68
2019-01-16 17:00:00 9.4 4 Norte 11 Norte 0 961.2 -0.5 65
2019-01-16 16:00:00 10 6 Norte 13 Nordeste 0 961.3 -1.2 58
2019-01-16 15:00:00 10 8 Norte 14 Norte 0 961.4 -2.1 56
2019-01-16 14:00:00 10.2 8 Norte 13 Nordeste 0 961.7 -2 54
2019-01-16 13:00:00 10.7 4 Nordeste 9 Nordeste 0 962.5 -1 44